createdAt,value
2023-05-14T00:00:17.075Z,0.00
2023-05-14T00:01:17.041Z,0.00
2023-05-14T00:02:17.051Z,0.00
2023-05-14T00:03:17.160Z,0.00
2023-05-14T00:04:17.105Z,0.00
2023-05-14T00:05:17.000Z,0.00
2023-05-14T00:06:16.995Z,0.00
2023-05-14T00:07:16.996Z,0.00
2023-05-14T00:08:16.964Z,0.00
2023-05-14T00:09:16.947Z,0.00
2023-05-14T00:10:16.943Z,0.00
2023-05-14T00:11:16.951Z,0.00
2023-05-14T00:12:16.914Z,0.00
2023-05-14T00:13:16.917Z,0.00
2023-05-14T00:14:16.910Z,0.00
2023-05-14T00:15:16.901Z,0.00
2023-05-14T00:16:16.929Z,0.00
2023-05-14T00:17:16.870Z,0.00
2023-05-14T00:18:16.849Z,0.00
2023-05-14T00:19:16.901Z,0.00
2023-05-14T00:20:16.856Z,0.00
2023-05-14T00:21:16.821Z,0.00
2023-05-14T00:22:16.805Z,0.00
2023-05-14T00:23:16.817Z,0.00
2023-05-14T00:24:16.796Z,0.00
2023-05-14T00:25:16.804Z,0.00
2023-05-14T00:26:16.765Z,0.00
2023-05-14T00:27:16.763Z,0.00
2023-05-14T00:28:16.749Z,0.00
2023-05-14T00:29:16.746Z,0.00
2023-05-14T00:30:16.738Z,0.00
2023-05-14T00:31:16.737Z,0.00
2023-05-14T00:32:16.701Z,0.00
2023-05-14T00:33:16.692Z,0.00
2023-05-14T00:34:16.717Z,0.00
2023-05-14T00:35:16.689Z,0.00
2023-05-14T00:36:16.657Z,0.00
2023-05-14T00:37:16.659Z,0.00
2023-05-14T00:38:16.630Z,0.00
2023-05-14T00:39:16.677Z,0.00
2023-05-14T00:40:16.632Z,0.00
2023-05-14T00:41:16.615Z,0.00
2023-05-14T00:42:16.593Z,0.00
2023-05-14T00:43:16.635Z,0.00
2023-05-14T00:44:16.572Z,0.00
2023-05-14T00:45:16.563Z,0.00
2023-05-14T00:46:16.622Z,0.00
2023-05-14T00:47:16.559Z,0.00
2023-05-14T00:48:16.573Z,0.00
2023-05-14T00:49:16.512Z,0.00
2023-05-14T00:50:16.552Z,0.00
2023-05-14T00:51:16.503Z,0.00
2023-05-14T00:52:16.494Z,0.00
2023-05-14T00:53:16.492Z,0.00
2023-05-14T00:54:16.478Z,0.00
2023-05-14T00:55:16.479Z,0.00
2023-05-14T00:56:16.438Z,0.00
2023-05-14T00:57:16.464Z,0.00
2023-05-14T00:58:16.442Z,0.00
2023-05-14T00:59:16.433Z,0.00
2023-05-14T01:00:16.427Z,0.00
2023-05-14T01:01:16.562Z,0.00
2023-05-14T01:02:16.394Z,0.00
2023-05-14T01:03:16.681Z,0.00
2023-05-14T01:04:16.357Z,0.00
2023-05-14T01:05:16.396Z,0.00
2023-05-14T01:06:16.332Z,0.00
2023-05-14T01:07:16.356Z,0.00
2023-05-14T01:08:16.307Z,0.00
2023-05-14T01:09:16.308Z,0.00
2023-05-14T01:10:16.286Z,0.00
2023-05-14T01:11:16.293Z,0.00
2023-05-14T01:12:16.263Z,0.00
2023-05-14T01:13:16.266Z,0.00
2023-05-14T01:14:16.243Z,0.00
2023-05-14T01:15:16.260Z,0.00
2023-05-14T01:16:16.246Z,0.00
2023-05-14T01:17:16.210Z,0.00
2023-05-14T01:18:16.229Z,0.00
2023-05-14T01:19:16.279Z,0.00
2023-05-14T01:20:16.195Z,0.00
2023-05-14T01:21:16.173Z,0.00
2023-05-14T01:22:16.155Z,0.00
2023-05-14T01:23:16.143Z,0.00
2023-05-14T01:24:16.148Z,0.00
2023-05-14T01:25:16.129Z,0.00
2023-05-14T01:26:16.108Z,0.00
2023-05-14T01:27:16.102Z,0.00
2023-05-14T01:28:16.093Z,0.00
2023-05-14T01:29:16.097Z,0.00
2023-05-14T01:30:16.103Z,0.00
2023-05-14T01:31:16.144Z,0.00
2023-05-14T01:32:16.048Z,0.00
2023-05-14T01:33:16.097Z,0.00
2023-05-14T01:34:16.043Z,0.00
2023-05-14T01:35:16.060Z,0.00
2023-05-14T01:36:16.008Z,0.00
2023-05-14T01:37:15.992Z,0.00
2023-05-14T01:38:15.990Z,0.00
2023-05-14T01:39:15.995Z,0.00
2023-05-14T01:40:15.984Z,0.00
2023-05-14T01:41:15.950Z,0.00
2023-05-14T01:42:15.932Z,0.00
2023-05-14T01:43:15.951Z,0.00
2023-05-14T01:44:15.939Z,0.00
2023-05-14T01:45:15.900Z,0.00
2023-05-14T01:46:15.931Z,0.00
2023-05-14T01:47:15.883Z,0.00
2023-05-14T01:48:15.871Z,0.00
2023-05-14T01:49:15.887Z,0.00
2023-05-14T01:50:15.871Z,0.00
2023-05-14T01:51:15.832Z,0.00
2023-05-14T01:52:15.821Z,0.00
2023-05-14T01:53:15.842Z,0.00
2023-05-14T01:54:15.821Z,0.00
2023-05-14T01:55:15.804Z,0.00
2023-05-14T01:56:15.784Z,0.00
2023-05-14T01:57:15.766Z,0.00
2023-05-14T01:58:15.786Z,0.00
2023-05-14T01:59:15.741Z,0.00
2023-05-14T02:00:15.741Z,0.00
2023-05-14T02:01:15.729Z,0.00
2023-05-14T02:02:15.744Z,0.00
2023-05-14T02:03:15.714Z,0.00
2023-05-14T02:04:15.737Z,0.00
2023-05-14T02:05:15.689Z,0.00
2023-05-14T02:06:15.700Z,0.00
2023-05-14T02:07:15.667Z,0.00
2023-05-14T02:08:15.663Z,0.00
2023-05-14T02:09:15.634Z,0.00
2023-05-14T02:10:15.640Z,0.00
2023-05-14T02:11:15.615Z,0.00
2023-05-14T02:12:15.627Z,0.00
2023-05-14T02:13:15.599Z,0.00
2023-05-14T02:14:15.581Z,0.00
2023-05-14T02:15:15.637Z,0.00
2023-05-14T02:16:15.607Z,0.00
2023-05-14T02:17:15.574Z,0.00
2023-05-14T02:18:15.538Z,0.00
2023-05-14T02:19:15.730Z,0.00
2023-05-14T02:20:15.536Z,0.00
2023-05-14T02:21:15.537Z,0.00
2023-05-14T02:22:15.518Z,0.00
2023-05-14T02:23:15.483Z,0.00
2023-05-14T02:24:15.485Z,0.00
2023-05-14T02:25:15.467Z,0.00
2023-05-14T02:26:15.470Z,0.00
2023-05-14T02:27:15.446Z,0.00
2023-05-14T02:28:15.431Z,0.00
2023-05-14T02:29:15.416Z,0.00
2023-05-14T02:30:15.436Z,0.00
2023-05-14T02:31:15.470Z,0.00
2023-05-14T02:32:15.400Z,0.00
2023-05-14T02:33:15.445Z,0.00
2023-05-14T02:34:15.372Z,0.00
2023-05-14T02:35:15.372Z,0.00
2023-05-14T02:36:15.342Z,0.00
2023-05-14T02:37:15.340Z,0.00
2023-05-14T02:38:15.338Z,0.00
2023-05-14T02:39:15.307Z,0.00
2023-05-14T02:40:15.327Z,0.00
2023-05-14T02:41:15.291Z,0.00
2023-05-14T02:42:15.350Z,4.00
2023-05-14T02:43:15.265Z,4.00
2023-05-14T02:44:15.269Z,0.00
2023-05-14T02:45:15.265Z,0.00
2023-05-14T02:46:15.316Z,0.00
2023-05-14T02:47:15.223Z,4.00
2023-05-14T02:48:15.213Z,4.00
2023-05-14T02:49:15.245Z,0.00
2023-05-14T02:50:15.195Z,4.00
2023-05-14T02:51:15.185Z,4.00
2023-05-14T02:52:15.173Z,4.00
2023-05-14T02:53:15.155Z,4.00
2023-05-14T02:54:15.184Z,4.00
2023-05-14T02:55:15.146Z,4.00
2023-05-14T02:56:15.142Z,4.00
2023-05-14T02:57:15.117Z,8.00
2023-05-14T02:58:15.129Z,8.00
2023-05-14T02:59:15.120Z,8.00
2023-05-14T03:00:15.128Z,8.00
2023-05-14T03:01:15.120Z,12.00
2023-05-14T03:02:15.108Z,16.00
2023-05-14T03:03:15.120Z,12.00
2023-05-14T03:04:15.041Z,16.00
2023-05-14T03:05:15.026Z,20.00
2023-05-14T03:06:15.039Z,20.00
2023-05-14T03:07:15.004Z,24.00
2023-05-14T03:08:15.032Z,28.00
2023-05-14T03:09:14.999Z,28.00
2023-05-14T03:10:15.008Z,32.00
2023-05-14T03:11:14.986Z,32.00
2023-05-14T03:12:14.970Z,32.00
2023-05-14T03:13:14.958Z,40.00
2023-05-14T03:14:14.952Z,40.00
2023-05-14T03:15:14.918Z,44.00
2023-05-14T03:16:14.932Z,44.00
2023-05-14T03:17:14.906Z,48.00
2023-05-14T03:18:14.885Z,56.00
2023-05-14T03:19:15.042Z,60.00
2023-05-14T03:20:14.905Z,60.00
2023-05-14T03:21:14.854Z,68.00
2023-05-14T03:22:14.861Z,76.00
2023-05-14T03:23:14.842Z,76.00
2023-05-14T03:24:14.824Z,84.00
2023-05-14T03:25:14.815Z,92.00
2023-05-14T03:26:14.833Z,100.00
2023-05-14T03:27:14.798Z,108.00
2023-05-14T03:28:14.774Z,120.00
2023-05-14T03:29:14.765Z,128.00
2023-05-14T03:30:14.757Z,140.00
2023-05-14T03:31:14.825Z,148.00
2023-05-14T03:32:14.734Z,160.00
2023-05-14T03:33:14.732Z,168.00
2023-05-14T03:34:14.715Z,180.00
2023-05-14T03:35:14.698Z,192.00
2023-05-14T03:36:14.703Z,204.00
2023-05-14T03:37:14.677Z,224.00
2023-05-14T03:38:14.669Z,244.00
2023-05-14T03:39:14.654Z,264.00
2023-05-14T03:40:14.668Z,284.00
2023-05-14T03:41:14.654Z,304.00
2023-05-14T03:42:14.641Z,320.00
2023-05-14T03:43:14.633Z,332.00
2023-05-14T03:44:14.603Z,340.00
2023-05-14T03:45:14.606Z,352.00
2023-05-14T03:46:14.587Z,364.00
2023-05-14T03:47:14.571Z,380.00
2023-05-14T03:48:14.666Z,380.00
2023-05-14T03:49:14.544Z,392.00
2023-05-14T03:50:14.557Z,396.00
2023-05-14T03:51:14.529Z,408.00
2023-05-14T03:52:14.527Z,428.00
2023-05-14T03:53:14.504Z,444.00
2023-05-14T03:54:14.506Z,460.00
2023-05-14T03:55:14.493Z,480.00
2023-05-14T03:56:14.473Z,496.00
2023-05-14T03:57:14.455Z,512.00
2023-05-14T03:58:14.660Z,524.00
2023-05-14T03:59:14.512Z,540.00
2023-05-14T04:00:14.433Z,544.00
2023-05-14T04:01:14.419Z,556.00
2023-05-14T04:02:14.487Z,564.00
2023-05-14T04:03:14.500Z,572.00
2023-05-14T04:04:14.485Z,584.00
2023-05-14T04:05:14.377Z,596.00
2023-05-14T04:06:14.363Z,608.00
2023-05-14T04:07:14.349Z,624.00
2023-05-14T04:08:14.375Z,632.00
2023-05-14T04:09:14.328Z,648.00
2023-05-14T04:10:14.317Z,664.00
2023-05-14T04:11:14.305Z,680.00
2023-05-14T04:12:14.295Z,704.00
2023-05-14T04:13:14.302Z,728.00
2023-05-14T04:14:14.292Z,752.00
2023-05-14T04:15:14.262Z,784.00
2023-05-14T04:16:14.297Z,824.00
2023-05-14T04:17:14.257Z,872.00
2023-05-14T04:18:14.347Z,924.00
2023-05-14T04:19:14.270Z,972.00
2023-05-14T04:20:14.208Z,1020.00
2023-05-14T04:21:14.217Z,1060.00
2023-05-14T04:22:14.212Z,1092.00
2023-05-14T04:23:14.192Z,1120.00
2023-05-14T04:24:14.167Z,1144.00
2023-05-14T04:25:14.154Z,1156.00
2023-05-14T04:26:14.143Z,1156.00
2023-05-14T04:27:14.145Z,1148.00
2023-05-14T04:28:14.125Z,1148.00
2023-05-14T04:29:14.112Z,1144.00
2023-05-14T04:30:14.125Z,1156.00
2023-05-14T04:31:14.115Z,1168.00
2023-05-14T04:32:14.087Z,1188.00
2023-05-14T04:33:14.060Z,1224.00
2023-05-14T04:34:14.059Z,1496.00
2023-05-14T04:35:14.044Z,1400.00
2023-05-14T04:36:14.048Z,1848.00
2023-05-14T04:37:14.037Z,2716.00
2023-05-14T04:38:14.006Z,4120.00
2023-05-14T04:39:13.997Z,4416.00
2023-05-14T04:40:13.993Z,4468.00
2023-05-14T04:41:13.996Z,5420.00
2023-05-14T04:42:13.972Z,6456.00
2023-05-14T04:43:13.962Z,5900.00
2023-05-14T04:44:13.946Z,3740.00
2023-05-14T04:45:13.942Z,2860.00
2023-05-14T04:46:14.079Z,2900.00
2023-05-14T04:47:13.909Z,3328.00
2023-05-14T04:48:13.900Z,4352.00
2023-05-14T04:49:13.883Z,4128.00
2023-05-14T04:50:13.962Z,3312.00
2023-05-14T04:51:13.884Z,2980.00
2023-05-14T04:52:13.888Z,3104.00
2023-05-14T04:53:13.849Z,2712.00
2023-05-14T04:54:13.894Z,2484.00
2023-05-14T04:55:13.832Z,2532.00
2023-05-14T04:56:13.834Z,2604.00
2023-05-14T04:57:13.811Z,2768.00
2023-05-14T04:58:13.790Z,2756.00
2023-05-14T04:59:13.780Z,2656.00
2023-05-14T05:00:13.773Z,2524.00
2023-05-14T05:01:13.845Z,2496.00
2023-05-14T05:02:13.764Z,2576.00
2023-05-14T05:03:13.863Z,2680.00
2023-05-14T05:04:13.917Z,2704.00
2023-05-14T05:05:13.729Z,2624.00
2023-05-14T05:06:13.705Z,2776.00
2023-05-14T05:07:13.695Z,3024.00
2023-05-14T05:08:13.738Z,2844.00
2023-05-14T05:09:13.689Z,2584.00
2023-05-14T05:10:13.669Z,2636.00
2023-05-14T05:11:13.668Z,2708.00
2023-05-14T05:12:13.644Z,2020.00
2023-05-14T05:13:13.627Z,1616.00
2023-05-14T05:14:13.627Z,1576.00
2023-05-14T05:15:13.617Z,1552.00
2023-05-14T05:16:13.711Z,1520.00
2023-05-14T05:17:13.600Z,1508.00
2023-05-14T05:18:13.794Z,1492.00
2023-05-14T05:19:13.697Z,1512.00
2023-05-14T05:20:13.580Z,1588.00
2023-05-14T05:21:13.547Z,1752.00
2023-05-14T05:22:13.541Z,1936.00
2023-05-14T05:23:13.539Z,2000.00
2023-05-14T05:24:13.514Z,2092.00
2023-05-14T05:25:13.509Z,2228.00
2023-05-14T05:26:13.497Z,2256.00
2023-05-14T05:27:13.499Z,2452.00
2023-05-14T05:28:13.520Z,2364.00
2023-05-14T05:29:13.461Z,2440.00
2023-05-14T05:30:13.456Z,2748.00
2023-05-14T05:31:13.479Z,2576.00
2023-05-14T05:32:13.438Z,3412.00
2023-05-14T05:33:13.423Z,3040.00
2023-05-14T05:34:13.459Z,2880.00
2023-05-14T05:35:13.405Z,2812.00
2023-05-14T05:36:13.384Z,2804.00
2023-05-14T05:37:13.418Z,2844.00
2023-05-14T05:38:13.357Z,3196.00
2023-05-14T05:39:13.345Z,2820.00
2023-05-14T05:40:13.361Z,2980.00
2023-05-14T05:41:13.346Z,3100.00
2023-05-14T05:42:21.026Z,3264.00
2023-05-14T05:43:13.312Z,3472.00
2023-05-14T05:44:13.308Z,4220.00
2023-05-14T05:45:13.275Z,3508.00
2023-05-14T05:46:13.308Z,3368.00
2023-05-14T05:47:13.254Z,3312.00
2023-05-14T05:48:13.242Z,3172.00
2023-05-14T05:49:13.267Z,3388.00
2023-05-14T05:50:13.263Z,3512.00
2023-05-14T05:51:13.219Z,3756.00
2023-05-14T05:52:13.194Z,3736.00
2023-05-14T05:53:13.191Z,3708.00
2023-05-14T05:54:13.173Z,3844.00
2023-05-14T05:55:13.181Z,3612.00
2023-05-14T05:56:13.153Z,3568.00
2023-05-14T05:57:13.146Z,4188.00
2023-05-14T05:58:21.046Z,3476.00
2023-05-14T05:59:13.130Z,3436.00
2023-05-14T06:00:13.216Z,3548.00
2023-05-14T06:01:13.102Z,3664.00
2023-05-14T06:02:13.213Z,3792.00
2023-05-14T06:03:13.100Z,3908.00
2023-05-14T06:04:13.103Z,4172.00
2023-05-14T06:05:13.101Z,4164.00
2023-05-14T06:06:13.062Z,4868.00
2023-05-14T06:07:13.033Z,5208.00
2023-05-14T06:08:13.023Z,4504.00
2023-05-14T06:09:13.039Z,4364.00
2023-05-14T06:10:13.029Z,4360.00
2023-05-14T06:11:12.993Z,4420.00
2023-05-14T06:12:12.986Z,4248.00
2023-05-14T06:13:12.986Z,4196.00
2023-05-14T06:14:12.978Z,4136.00
2023-05-14T06:15:12.948Z,4264.00
2023-05-14T06:16:12.964Z,3972.00
2023-05-14T06:17:12.930Z,3764.00
2023-05-14T06:18:12.954Z,3716.00
2023-05-14T06:19:13.092Z,3804.00
2023-05-14T06:20:12.894Z,3716.00
2023-05-14T06:21:12.890Z,3548.00
2023-05-14T06:22:12.889Z,3356.00
2023-05-14T06:23:12.880Z,3128.00
2023-05-14T06:24:12.849Z,2920.00
2023-05-14T06:25:12.890Z,2840.00
2023-05-14T06:26:12.827Z,2804.00
2023-05-14T06:27:12.824Z,2840.00
2023-05-14T06:28:12.858Z,2916.00
2023-05-14T06:29:12.804Z,2984.00
2023-05-14T06:30:12.809Z,3096.00
2023-05-14T06:31:12.840Z,3188.00
2023-05-14T06:32:12.892Z,3344.00
2023-05-14T06:33:12.763Z,3476.00
2023-05-14T06:34:12.743Z,3520.00
2023-05-14T06:35:12.767Z,3532.00
2023-05-14T06:36:12.719Z,3500.00
2023-05-14T06:37:12.722Z,3528.00
2023-05-14T06:38:12.853Z,3772.00
2023-05-14T06:39:12.687Z,3944.00
2023-05-14T06:40:12.687Z,3952.00
2023-05-14T06:41:12.679Z,3876.00
2023-05-14T06:42:12.662Z,3664.00
2023-05-14T06:43:12.653Z,3528.00
2023-05-14T06:44:12.631Z,3268.00
2023-05-14T06:45:12.624Z,2872.00
2023-05-14T06:46:12.616Z,2848.00
2023-05-14T06:47:12.614Z,3248.00
2023-05-14T06:48:12.640Z,3564.00
2023-05-14T06:49:12.629Z,3668.00
2023-05-14T06:50:12.565Z,3668.00
2023-05-14T06:51:12.580Z,3832.00
2023-05-14T06:52:12.554Z,3992.00
2023-05-14T06:53:12.535Z,3912.00
2023-05-14T06:54:12.546Z,3772.00
2023-05-14T06:55:12.528Z,3604.00
2023-05-14T06:56:12.535Z,3720.00
2023-05-14T06:57:12.493Z,3944.00
2023-05-14T06:58:12.479Z,4152.00
2023-05-14T06:59:12.468Z,4260.00
2023-05-14T07:00:12.479Z,4280.00
2023-05-14T07:01:12.501Z,4328.00
2023-05-14T07:02:12.434Z,4464.00
2023-05-14T07:03:12.427Z,4608.00
2023-05-14T07:04:12.542Z,4580.00
2023-05-14T07:05:12.444Z,4536.00
2023-05-14T07:06:13.640Z,4408.00
2023-05-14T07:07:12.384Z,4272.00
2023-05-14T07:08:12.373Z,4172.00
2023-05-14T07:09:12.371Z,4084.00
2023-05-14T07:10:12.383Z,4120.00
2023-05-14T07:11:12.338Z,4260.00
2023-05-14T07:12:12.325Z,4320.00
2023-05-14T07:13:12.332Z,4280.00
2023-05-14T07:14:12.305Z,4292.00
2023-05-14T07:15:12.339Z,4316.00
2023-05-14T07:16:12.302Z,4272.00
2023-05-14T07:17:12.407Z,4428.00
2023-05-14T07:18:12.297Z,4776.00
2023-05-14T07:19:12.405Z,4944.00
2023-05-14T07:20:12.294Z,4920.00
2023-05-14T07:21:12.231Z,4620.00
2023-05-14T07:22:12.217Z,4420.00
2023-05-14T07:23:12.211Z,4400.00
2023-05-14T07:24:12.216Z,4556.00
2023-05-14T07:25:12.193Z,4760.00
2023-05-14T07:26:12.196Z,5204.00
2023-05-14T07:27:12.172Z,5232.00
2023-05-14T07:28:12.156Z,5096.00
2023-05-14T07:29:12.256Z,5268.00
2023-05-14T07:30:12.131Z,5200.00
2023-05-14T07:31:12.146Z,4928.00
2023-05-14T07:32:14.698Z,4684.00
2023-05-14T07:33:12.193Z,4792.00
2023-05-14T07:34:12.172Z,5464.00
2023-05-14T07:35:12.087Z,6116.00
2023-05-14T07:36:12.078Z,6836.00
2023-05-14T07:37:12.057Z,7480.00
2023-05-14T07:38:12.078Z,7880.00
2023-05-14T07:39:12.041Z,8564.00
2023-05-14T07:40:12.030Z,10412.00
2023-05-14T07:41:12.014Z,8588.00
2023-05-14T07:42:19.299Z,8736.00
2023-05-14T07:43:13.010Z,8828.00
2023-05-14T07:44:11.980Z,9108.00
2023-05-14T07:45:11.971Z,9072.00
2023-05-14T07:46:11.963Z,9532.00
2023-05-14T07:47:11.983Z,9464.00
2023-05-14T07:48:12.309Z,10604.00
2023-05-14T07:49:11.958Z,12868.00
2023-05-14T07:50:11.922Z,12068.00
2023-05-14T07:51:11.911Z,10472.00
2023-05-14T07:52:11.919Z,11520.00
2023-05-14T07:53:11.884Z,11868.00
2023-05-14T07:54:11.878Z,12968.00
2023-05-14T07:55:11.867Z,12464.00
2023-05-14T07:56:11.859Z,13316.00
2023-05-14T07:57:11.952Z,13404.00
2023-05-14T07:58:11.851Z,17536.00
2023-05-14T07:59:11.819Z,12136.00
2023-05-14T08:00:11.811Z,11812.00
2023-05-14T08:01:11.801Z,14608.00
2023-05-14T08:02:11.852Z,14048.00
2023-05-14T08:03:11.924Z,12920.00
2023-05-14T08:04:11.859Z,14820.00
2023-05-14T08:05:11.760Z,14116.00
2023-05-14T08:06:11.769Z,14624.00
2023-05-14T08:07:11.760Z,14468.00
2023-05-14T08:08:11.726Z,15392.00
2023-05-14T08:09:11.717Z,14776.00
2023-05-14T08:10:11.728Z,16896.00
2023-05-14T08:11:11.748Z,15488.00
2023-05-14T08:12:11.738Z,14860.00
2023-05-14T08:13:11.721Z,14564.00
2023-05-14T08:14:11.676Z,15004.00
2023-05-14T08:15:11.682Z,15680.00
2023-05-14T08:16:11.647Z,15744.00
2023-05-14T08:17:11.683Z,18688.00
2023-05-14T08:18:11.640Z,16480.00
2023-05-14T08:19:11.784Z,15052.00
2023-05-14T08:20:11.626Z,14448.00
2023-05-14T08:21:11.598Z,15680.00
2023-05-14T08:22:11.570Z,15744.00
2023-05-14T08:23:11.571Z,15520.00
2023-05-14T08:24:11.591Z,16096.00
2023-05-14T08:25:11.562Z,18048.00
2023-05-14T08:26:11.529Z,18688.00
2023-05-14T08:27:11.525Z,16992.00
2023-05-14T08:28:11.521Z,17984.00
2023-05-14T08:29:12.810Z,19232.00
2023-05-14T08:30:11.512Z,18432.00
2023-05-14T08:31:11.542Z,19072.00
2023-05-14T08:32:22.103Z,15488.00
2023-05-14T08:33:12.507Z,14840.00
2023-05-14T08:34:11.512Z,33280.00
2023-05-14T08:35:11.434Z,20608.00
2023-05-14T08:36:11.427Z,18464.00
2023-05-14T08:37:11.416Z,18560.00
2023-05-14T08:38:11.446Z,17376.00
2023-05-14T08:39:11.421Z,19616.00
2023-05-14T08:40:11.382Z,18304.00
2023-05-14T08:41:11.371Z,20032.00
2023-05-14T08:42:11.361Z,17856.00
2023-05-14T08:43:11.364Z,17344.00
2023-05-14T08:44:11.371Z,17664.00
2023-05-14T08:45:11.368Z,17952.00
2023-05-14T08:46:11.344Z,19744.00
2023-05-14T08:47:11.308Z,17088.00
2023-05-14T08:48:11.394Z,16768.00
2023-05-14T08:49:11.371Z,17312.00
2023-05-14T08:50:11.274Z,20192.00
2023-05-14T08:51:11.264Z,18112.00
2023-05-14T08:52:11.367Z,18528.00
2023-05-14T08:53:11.261Z,17760.00
2023-05-14T08:54:11.243Z,16192.00
2023-05-14T08:55:11.241Z,14388.00
2023-05-14T08:56:11.209Z,13104.00
2023-05-14T08:57:11.219Z,12512.00
2023-05-14T08:58:11.197Z,13224.00
2023-05-14T08:59:11.182Z,12192.00
2023-05-14T09:00:11.168Z,11980.00
2023-05-14T09:01:11.156Z,12660.00
2023-05-14T09:02:11.269Z,12544.00
2023-05-14T09:03:11.161Z,14560.00
2023-05-14T09:04:11.195Z,14328.00
2023-05-14T09:05:11.125Z,13936.00
2023-05-14T09:06:11.168Z,15400.00
2023-05-14T09:07:11.112Z,18656.00
2023-05-14T09:08:11.080Z,28928.00
2023-05-14T09:09:11.073Z,30688.00
2023-05-14T09:10:11.092Z,37600.00
2023-05-14T09:11:11.062Z,35424.00
2023-05-14T09:12:11.052Z,35552.00
2023-05-14T09:13:11.025Z,37056.00
2023-05-14T09:14:11.037Z,37536.00
2023-05-14T09:15:11.001Z,37696.00
2023-05-14T09:16:11.027Z,37632.00
2023-05-14T09:17:10.983Z,38016.00
2023-05-14T09:18:11.022Z,37792.00
2023-05-14T09:19:11.049Z,29568.00
2023-05-14T09:20:10.976Z,22560.00
2023-05-14T09:21:10.954Z,22592.00
2023-05-14T09:22:10.939Z,36896.00
2023-05-14T09:23:10.925Z,38848.00
2023-05-14T09:24:10.909Z,39360.00
2023-05-14T09:25:10.914Z,40352.00
2023-05-14T09:26:10.890Z,40256.00
2023-05-14T09:27:10.893Z,39808.00
2023-05-14T09:28:10.867Z,34016.00
2023-05-14T09:29:10.863Z,33792.00
2023-05-14T09:30:10.876Z,29824.00
2023-05-14T09:31:10.870Z,34528.00
2023-05-14T09:32:10.826Z,29632.00
2023-05-14T09:33:10.851Z,24640.00
2023-05-14T09:34:10.821Z,28896.00
2023-05-14T09:35:10.842Z,25536.00
2023-05-14T09:36:10.788Z,19648.00
2023-05-14T09:37:10.773Z,35296.00
2023-05-14T09:38:10.771Z,28736.00
2023-05-14T09:39:10.780Z,32672.00
2023-05-14T09:40:10.779Z,30816.00
2023-05-14T09:41:10.738Z,30240.00
2023-05-14T09:42:10.723Z,22816.00
2023-05-14T09:43:10.715Z,26784.00
2023-05-14T09:44:10.754Z,20992.00
2023-05-14T09:45:10.705Z,25760.00
2023-05-14T09:46:10.700Z,34336.00
2023-05-14T09:47:10.721Z,31968.00
2023-05-14T09:48:11.021Z,36096.00
2023-05-14T09:49:10.738Z,38016.00
2023-05-14T09:50:10.667Z,38080.00
2023-05-14T09:51:10.632Z,37824.00
2023-05-14T09:52:10.623Z,38336.00
2023-05-14T09:53:10.625Z,38304.00
2023-05-14T09:54:10.628Z,39968.00
2023-05-14T09:55:10.666Z,7340.00
2023-05-14T09:56:10.581Z,6832.00
2023-05-14T09:57:10.592Z,27200.00
2023-05-14T09:58:10.600Z,6828.00
2023-05-14T09:59:10.550Z,4448.00
2023-05-14T10:00:10.540Z,4256.00
2023-05-14T10:01:10.569Z,3748.00
2023-05-14T10:02:10.550Z,3252.00
2023-05-14T10:03:10.594Z,3072.00
2023-05-14T10:04:10.543Z,2820.00
2023-05-14T10:05:10.485Z,2744.00
2023-05-14T10:06:10.537Z,2784.00
2023-05-14T10:07:10.518Z,2928.00
2023-05-14T10:08:10.458Z,3176.00
2023-05-14T10:09:10.449Z,3692.00
2023-05-14T10:10:10.437Z,11820.00
2023-05-14T10:11:10.425Z,4488.00
2023-05-14T10:12:10.466Z,3668.00
2023-05-14T10:13:10.400Z,3924.00
2023-05-14T10:14:10.394Z,3880.00
2023-05-14T10:15:10.401Z,3256.00
2023-05-14T10:16:10.385Z,1992.00
2023-05-14T10:17:10.555Z,1480.00
2023-05-14T10:18:10.392Z,1316.00
2023-05-14T10:19:10.408Z,1200.00
2023-05-14T10:20:10.350Z,1116.00
2023-05-14T10:21:10.331Z,1084.00
2023-05-14T10:22:10.346Z,1084.00
2023-05-14T10:23:10.336Z,1148.00
2023-05-14T10:24:10.286Z,1284.00
2023-05-14T10:25:10.272Z,1512.00
2023-05-14T10:26:10.259Z,1808.00
2023-05-14T10:27:10.263Z,2144.00
2023-05-14T10:28:10.239Z,2592.00
2023-05-14T10:29:10.227Z,3012.00
2023-05-14T10:30:10.259Z,3252.00
2023-05-14T10:31:10.236Z,2888.00
2023-05-14T10:32:10.210Z,2448.00
2023-05-14T10:33:10.288Z,2244.00
2023-05-14T10:34:10.177Z,2104.00
2023-05-14T10:35:10.194Z,2024.00
2023-05-14T10:36:10.240Z,1980.00
2023-05-14T10:37:10.169Z,1936.00
2023-05-14T10:38:10.151Z,1896.00
2023-05-14T10:39:10.122Z,1872.00
2023-05-14T10:40:10.144Z,1800.00
2023-05-14T10:41:10.106Z,1784.00
2023-05-14T10:42:10.104Z,1712.00
2023-05-14T10:43:10.081Z,1628.00
2023-05-14T10:44:10.691Z,1668.00
2023-05-14T10:45:10.072Z,1816.00
2023-05-14T10:46:10.121Z,1980.00
2023-05-14T10:47:10.037Z,2272.00
2023-05-14T10:48:10.109Z,2604.00
2023-05-14T10:49:10.054Z,2804.00
2023-05-14T10:50:10.009Z,2804.00
2023-05-14T10:51:10.077Z,2812.00
2023-05-14T10:52:09.984Z,2768.00
2023-05-14T10:53:09.978Z,2700.00
2023-05-14T10:54:10.027Z,2672.00
2023-05-14T10:55:09.952Z,2672.00
2023-05-14T10:56:09.944Z,2668.00
2023-05-14T10:57:09.931Z,2692.00
2023-05-14T10:58:09.951Z,2700.00
2023-05-14T10:59:09.942Z,2824.00
2023-05-14T11:00:09.900Z,2964.00
2023-05-14T11:01:09.925Z,3140.00
2023-05-14T11:02:09.983Z,3180.00
2023-05-14T11:03:09.968Z,2800.00
2023-05-14T11:04:09.886Z,2200.00
2023-05-14T11:05:09.848Z,1832.00
2023-05-14T11:06:09.842Z,1680.00
2023-05-14T11:07:09.826Z,1616.00
2023-05-14T11:08:09.824Z,1500.00
2023-05-14T11:09:09.820Z,1352.00
2023-05-14T11:10:09.811Z,1188.00
2023-05-14T11:11:09.800Z,1092.00
2023-05-14T11:12:09.810Z,1048.00
2023-05-14T11:13:09.832Z,1044.00
2023-05-14T11:14:10.256Z,1052.00
2023-05-14T11:15:09.754Z,1072.00
2023-05-14T11:16:21.501Z,1100.00
2023-05-14T11:17:10.844Z,1128.00
2023-05-14T11:18:09.759Z,1152.00
2023-05-14T11:19:09.751Z,1188.00
2023-05-14T11:20:09.685Z,1264.00
2023-05-14T11:21:09.721Z,1364.00
2023-05-14T11:22:09.676Z,1508.00
2023-05-14T11:23:09.653Z,1692.00
2023-05-14T11:24:09.652Z,1868.00
2023-05-14T11:25:09.629Z,2032.00
2023-05-14T11:26:09.681Z,2180.00
2023-05-14T11:27:09.624Z,2332.00
2023-05-14T11:28:09.602Z,2488.00
2023-05-14T11:29:09.596Z,2644.00
2023-05-14T11:30:09.578Z,2820.00
2023-05-14T11:31:09.594Z,3000.00
2023-05-14T11:32:09.571Z,3172.00
2023-05-14T11:33:09.589Z,3324.00
2023-05-14T11:34:09.571Z,3404.00
2023-05-14T11:35:09.542Z,3460.00
2023-05-14T11:36:09.536Z,3452.00
2023-05-14T11:37:09.507Z,3400.00
2023-05-14T11:38:09.494Z,3240.00
2023-05-14T11:39:09.489Z,2952.00
2023-05-14T11:40:09.491Z,2596.00
2023-05-14T11:41:09.468Z,2372.00
2023-05-14T11:42:09.469Z,2236.00
2023-05-14T11:43:09.438Z,2124.00
2023-05-14T11:44:09.430Z,1984.00
2023-05-14T11:45:09.439Z,1844.00
2023-05-14T11:46:09.485Z,1752.00
2023-05-14T11:47:09.409Z,1668.00
2023-05-14T11:48:09.427Z,1616.00
2023-05-14T11:49:09.374Z,1600.00
2023-05-14T11:50:09.984Z,1536.00
2023-05-14T11:51:09.351Z,1512.00
2023-05-14T11:52:09.347Z,1476.00
2023-05-14T11:53:09.398Z,1496.00
2023-05-14T11:54:09.334Z,1604.00
2023-05-14T11:55:09.324Z,1728.00
2023-05-14T11:56:10.110Z,1848.00
2023-05-14T11:57:09.287Z,1956.00
2023-05-14T11:58:09.325Z,2060.00
2023-05-14T11:59:09.283Z,2172.00
2023-05-14T12:00:09.261Z,2284.00
2023-05-14T12:01:09.268Z,2380.00
2023-05-14T12:02:09.276Z,2516.00
2023-05-14T12:03:09.324Z,2648.00
2023-05-14T12:04:09.340Z,2740.00
2023-05-14T12:05:09.252Z,2832.00
2023-05-14T12:06:09.193Z,2980.00
2023-05-14T12:07:09.174Z,3128.00
2023-05-14T12:08:09.177Z,3276.00
2023-05-14T12:09:09.172Z,3444.00
2023-05-14T12:10:09.181Z,3612.00
2023-05-14T12:11:09.142Z,3776.00
2023-05-14T12:12:09.125Z,3928.00
2023-05-14T12:13:09.137Z,4076.00
2023-05-14T12:14:09.138Z,4188.00
2023-05-14T12:15:09.087Z,4220.00
2023-05-14T12:16:09.108Z,4296.00
2023-05-14T12:17:09.065Z,4388.00
2023-05-14T12:18:23.015Z,4500.00
2023-05-14T12:19:10.103Z,4648.00
2023-05-14T12:20:09.035Z,4840.00
2023-05-14T12:21:09.024Z,5020.00